Avon, Minnesota
Current Conditions -  °F | °C
As of 5:10 AM on Thursday 23 Oct 2014 (Local Time) from KSTC Reporting Station
Haze Haze  
Wind Chill: 55°   Ceiling: 300
Heat Index: 55°   Visibility: 1.2mi
Dew Point: 52°   Wind: 6mph
Humidity: 89%   Direction: 190°S
Pressure: 29.95"   Gusts: NA
Location:  45.61°N, 94.45°W
Report Text: KSTC 231010Z AUTO 19005KT 1 1/4SM BR OVC003 13/11 A2995 RMK AO2 T01280111
Loading
Personal Weather Stations






























Interactive Weather Map New forecast layout! Learn more

10-Day Weather Forecast

Advertisements
Track Severe Weather on mobile